Check out our new PWSWeather beta!
PWSweather.com
Personal Weather Stations
Station Observations
REUBENS
Camas Prairie, Reubens, ID 83548

Camas PrairieReubens, ID 83548

Lat: 46.35417, Lon: -116.53167

Elevation: 3480

Station Type: Davis VantagePro 2

http://www.theobrienranch.com/wx/wx.htm

High Low Average
Temperature 38.9°F3.8°C 23.3°F-4.8°C 31.4°F-0.3°C
Dew Point 28.9°F-1.7°C 21.6°F-5.8°C 25.4°F-3.7°C
Winds 17.3 mph 27.8 kmh Calm Calm 6.0 mph S9.7 kmh S
Wind Gusts 18.4 mph29.6 kmh -- 8.0 mph12.9 kmh
Humidity 93% 64% 79%
Pressure 29.99 in1015.6 mb 29.73 in1006.8 mb -
Precipitation 0.03 in0.8 mm - -
Hour Temp Dew Point Humidity Winds Wind Gusts Pressure Precip Precip Rate Daily Precip Total
12:00 AM 31.2°F-0.4°C 24.2°F-4.3°C 75% 9.2 mph SE14.8 kmh SE 11.5 mph18.5 kmh 29.99 in1015.6 mb - 0.00 in0.0 mm 0.00 in0.0 mm
12:15 AM 31.7°F-0.2°C 24.4°F-4.2°C 74% 9.2 mph SE14.8 kmh SE 11.5 mph18.5 kmh 29.98 in1015.2 mb - 0.00 in0.0 mm 0.00 in0.0 mm
12:30 AM 32.4°F0.2°C 24.7°F-4.1°C 73% 10.4 mph SE16.7 kmh SE 12.7 mph20.4 kmh 29.97 in1014.9 mb - 0.00 in0.0 mm 0.00 in0.0 mm
12:45 AM 33.1°F0.6°C 24.7°F-4.1°C 71% 12.7 mph SE20.4 kmh SE 13.8 mph22.2 kmh 29.96 in1014.6 mb - 0.00 in0.0 mm 0.00 in0.0 mm
01:00 AM 32.2°F0.1°C 25.2°F-3.8°C 75% 12.7 mph SE20.4 kmh SE 15.0 mph24.1 kmh 29.96 in1014.6 mb - 0.00 in0.0 mm 0.00 in0.0 mm
01:15 AM 32.3°F0.2°C 25.3°F-3.7°C 75% 11.5 mph SE18.5 kmh SE 12.7 mph20.4 kmh 29.95 in1014.2 mb - 0.00 in0.0 mm 0.00 in0.0 mm
01:30 AM 31.7°F-0.2°C 25.3°F-3.7°C 77% 11.5 mph SE18.5 kmh SE 17.3 mph27.8 kmh 29.96 in1014.6 mb - 0.00 in0.0 mm 0.00 in0.0 mm
01:45 AM 31.7°F-0.2°C 25.6°F-3.6°C 78% 11.5 mph ESE18.5 kmh ESE 12.7 mph20.4 kmh 29.95 in1014.2 mb - 0.00 in0.0 mm 0.00 in0.0 mm
02:00 AM 30.5°F-0.8°C 25.6°F-3.6°C 82% 13.8 mph E22.2 kmh E 16.1 mph25.9 kmh 29.95 in1014.2 mb - 0.00 in0.0 mm 0.00 in0.0 mm
02:15 AM 30.7°F-0.7°C 25.8°F-3.4°C 82% 13.8 mph ESE22.2 kmh ESE 15.0 mph24.1 kmh 29.94 in1013.9 mb - 0.00 in0.0 mm 0.00 in0.0 mm
02:30 AM 30.4°F-0.9°C 26.2°F-3.2°C 84% 13.8 mph SE22.2 kmh SE 15.0 mph24.1 kmh 29.94 in1013.9 mb - 0.00 in0.0 mm 0.00 in0.0 mm
02:45 AM 30.3°F-0.9°C 26.0°F-3.3°C 84% 17.3 mph ESE27.8 kmh ESE 18.4 mph29.6 kmh 29.93 in1013.5 mb - 0.00 in0.0 mm 0.00 in0.0 mm
03:00 AM 30.3°F-0.9°C 26.0°F-3.3°C 84% 16.1 mph ESE25.9 kmh ESE 17.3 mph27.8 kmh 29.93 in1013.5 mb - 0.00 in0.0 mm 0.00 in0.0 mm
03:15 AM 30.7°F-0.7°C 26.1°F-3.3°C 83% 13.8 mph ESE22.2 kmh ESE 16.1 mph25.9 kmh 29.91 in1012.9 mb - 0.00 in0.0 mm 0.00 in0.0 mm
03:30 AM 30.6°F-0.8°C 26.0°F-3.3°C 83% 12.7 mph ESE20.4 kmh ESE 13.8 mph22.2 kmh 29.91 in1012.9 mb - 0.00 in0.0 mm 0.00 in0.0 mm
03:45 AM 30.8°F-0.7°C 26.0°F-3.3°C 82% 12.7 mph E20.4 kmh E 12.7 mph20.4 kmh 29.89 in1012.2 mb - 0.00 in0.0 mm 0.00 in0.0 mm
04:00 AM 30.8°F-0.7°C 25.7°F-3.5°C 81% 15.0 mph ESE24.1 kmh ESE 15.0 mph24.1 kmh 29.89 in1012.2 mb - 0.00 in0.0 mm 0.00 in0.0 mm
04:15 AM 30.6°F-0.8°C 25.5°F-3.6°C 81% 13.8 mph E22.2 kmh E 15.0 mph24.1 kmh 29.88 in1011.9 mb - 0.00 in0.0 mm 0.00 in0.0 mm
04:30 AM 30.2°F-1.0°C 24.8°F-4.0°C 80% 15.0 mph E24.1 kmh E 15.0 mph24.1 kmh 29.89 in1012.2 mb - 0.00 in0.0 mm 0.00 in0.0 mm
04:45 AM 29.4°F-1.4°C 24.0°F-4.4°C 80% 12.7 mph E20.4 kmh E 13.8 mph22.2 kmh 29.88 in1011.9 mb - 0.00 in0.0 mm 0.00 in0.0 mm
05:00 AM 29.4°F-1.4°C 24.0°F-4.4°C 80% 15.0 mph E24.1 kmh E 16.1 mph25.9 kmh 29.88 in1011.9 mb - 0.00 in0.0 mm 0.00 in0.0 mm
05:15 AM 29.5°F-1.4°C 23.8°F-4.6°C 79% 11.5 mph ESE18.5 kmh ESE 11.5 mph18.5 kmh 29.87 in1011.5 mb - 0.00 in0.0 mm 0.00 in0.0 mm
05:30 AM 30.6°F-0.8°C 24.5°F-4.2°C 78% 10.4 mph ESE16.7 kmh ESE 11.5 mph18.5 kmh 29.86 in1011.2 mb - 0.00 in0.0 mm 0.00 in0.0 mm
05:45 AM 31.0°F-0.6°C 24.6°F-4.1°C 77% 10.4 mph ESE16.7 kmh ESE 11.5 mph18.5 kmh 29.86 in1011.2 mb - 0.00 in0.0 mm 0.00 in0.0 mm
06:00 AM 30.9°F-0.6°C 24.2°F-4.3°C 76% 10.4 mph ESE16.7 kmh ESE 11.5 mph18.5 kmh 29.86 in1011.2 mb - 0.00 in0.0 mm 0.00 in0.0 mm
06:15 AM 30.6°F-0.8°C 23.9°F-4.5°C 76% 8.1 mph SE13.0 kmh SE 10.4 mph16.7 kmh 29.86 in1011.2 mb - 0.00 in0.0 mm 0.00 in0.0 mm
06:30 AM 29.3°F-1.5°C 23.3°F-4.8°C 78% 9.2 mph SE14.8 kmh SE 10.4 mph16.7 kmh 29.86 in1011.2 mb - 0.00 in0.0 mm 0.00 in0.0 mm
06:45 AM 30.4°F-0.9°C 24.1°F-4.4°C 77% 11.5 mph ESE18.5 kmh ESE 11.5 mph18.5 kmh 29.85 in1010.8 mb - 0.00 in0.0 mm 0.00 in0.0 mm
07:00 AM 30.8°F-0.7°C 24.4°F-4.2°C 77% 13.8 mph E22.2 kmh E 15.0 mph24.1 kmh 29.84 in1010.5 mb - 0.00 in0.0 mm 0.00 in0.0 mm
07:15 AM 30.1°F-1.1°C 24.0°F-4.4°C 78% 12.7 mph E20.4 kmh E 12.7 mph20.4 kmh 29.84 in1010.5 mb - 0.00 in0.0 mm 0.00 in0.0 mm
07:30 AM 29.9°F-1.2°C 23.9°F-4.5°C 78% 10.4 mph E16.7 kmh E 11.5 mph18.5 kmh 29.84 in1010.5 mb - 0.00 in0.0 mm 0.00 in0.0 mm
07:45 AM 28.8°F-1.8°C 23.1°F-4.9°C 79% 5.8 mph ESE9.3 kmh ESE 9.2 mph14.8 kmh 29.85 in1010.8 mb - 0.00 in0.0 mm 0.00 in0.0 mm
08:00 AM 28.7°F-1.8°C 22.7°F-5.2°C 78% 6.9 mph E11.1 kmh E 9.2 mph14.8 kmh 29.85 in1010.8 mb - 0.00 in0.0 mm 0.00 in0.0 mm
08:15 AM 29.2°F-1.6°C 23.5°F-4.7°C 79% 8.1 mph E13.0 kmh E 9.2 mph14.8 kmh 29.85 in1010.8 mb - 0.00 in0.0 mm 0.00 in0.0 mm
08:30 AM 30.1°F-1.1°C 23.8°F-4.6°C 77% 6.9 mph E11.1 kmh E 8.1 mph13.0 kmh 29.84 in1010.5 mb - 0.00 in0.0 mm 0.00 in0.0 mm
08:45 AM 29.6°F-1.3°C 22.6°F-5.2°C 75% 8.1 mph E13.0 kmh E 9.2 mph14.8 kmh 29.85 in1010.8 mb - 0.00 in0.0 mm 0.00 in0.0 mm
09:00 AM 30.8°F-0.7°C 23.5°F-4.7°C 74% 9.2 mph E14.8 kmh E 9.2 mph14.8 kmh 29.84 in1010.5 mb - 0.00 in0.0 mm 0.00 in0.0 mm
09:15 AM 30.0°F-1.1°C 23.0°F-5.0°C 75% 10.4 mph E16.7 kmh E 11.5 mph18.5 kmh 29.85 in1010.8 mb - 0.00 in0.0 mm 0.00 in0.0 mm
09:30 AM 30.8°F-0.7°C 23.8°F-4.6°C 75% 9.2 mph E14.8 kmh E 10.4 mph16.7 kmh 29.84 in1010.5 mb - 0.00 in0.0 mm 0.00 in0.0 mm
09:45 AM 31.5°F-0.3°C 24.2°F-4.3°C 74% 6.9 mph ESE11.1 kmh ESE 6.9 mph11.1 kmh 29.84 in1010.5 mb - 0.00 in0.0 mm 0.00 in0.0 mm
10:00 AM 32.6°F0.3°C 25.3°F-3.7°C 74% 4.6 mph ESE7.4 kmh ESE 4.6 mph7.4 kmh 29.83 in1010.2 mb - 0.00 in0.0 mm 0.00 in0.0 mm
10:15 AM 33.7°F0.9°C 25.6°F-3.6°C 72% 4.6 mph E7.4 kmh E 4.6 mph7.4 kmh 29.83 in1010.2 mb - 0.00 in0.0 mm 0.00 in0.0 mm
10:30 AM 33.6°F0.9°C 24.9°F-3.9°C 70% 5.8 mph E9.3 kmh E 5.8 mph9.3 kmh 29.82 in1009.8 mb - 0.00 in0.0 mm 0.00 in0.0 mm
10:45 AM 35.0°F1.7°C 26.2°F-3.2°C 70% 5.8 mph E9.3 kmh E 5.8 mph9.3 kmh 29.82 in1009.8 mb - 0.00 in0.0 mm 0.00 in0.0 mm
11:00 AM 35.1°F1.7°C 26.3°F-3.2°C 70% 4.6 mph E7.4 kmh E 4.6 mph7.4 kmh 29.81 in1009.5 mb - 0.01 in0.3 mm 0.01 in0.3 mm
11:15 AM 36.6°F2.6°C 28.0°F-2.2°C 71% 3.5 mph NE5.6 kmh NE 3.5 mph5.6 kmh 29.80 in1009.1 mb - 0.01 in0.3 mm 0.01 in0.3 mm
11:30 AM 38.0°F3.3°C 28.0°F-2.2°C 67% 2.3 mph NE3.7 kmh NE 3.5 mph5.6 kmh 29.78 in1008.5 mb - 0.01 in0.3 mm 0.01 in0.3 mm
11:45 AM 37.5°F3.1°C 27.1°F-2.7°C 66% 3.5 mph NE5.6 kmh NE 3.5 mph5.6 kmh 29.78 in1008.5 mb - 0.01 in0.3 mm 0.01 in0.3 mm
12:00 PM 38.0°F3.3°C 27.6°F-2.4°C 66% 3.5 mph NE5.6 kmh NE 3.5 mph5.6 kmh 29.77 in1008.1 mb - 0.01 in0.3 mm 0.02 in0.5 mm
12:15 PM 36.7°F2.6°C 27.8°F-2.3°C 70% 2.3 mph ENE3.7 kmh ENE 2.3 mph3.7 kmh 29.76 in1007.8 mb - 0.01 in0.3 mm 0.02 in0.5 mm
12:30 PM 37.0°F2.8°C 27.4°F-2.6°C 68% 4.6 mph E7.4 kmh E 4.6 mph7.4 kmh 29.76 in1007.8 mb - 0.02 in0.5 mm 0.03 in0.8 mm
12:45 PM 37.1°F2.8°C 28.3°F-2.1°C 70% 1.2 mph E1.9 kmh E 2.3 mph3.7 kmh 29.75 in1007.5 mb - 0.02 in0.5 mm 0.03 in0.8 mm
01:00 PM 38.9°F3.8°C 27.8°F-2.3°C 64% 3.5 mph E5.6 kmh E 3.5 mph5.6 kmh 29.74 in1007.1 mb - 0.01 in0.3 mm 0.03 in0.8 mm
01:15 PM 35.8°F2.1°C 27.0°F-2.8°C 70% 3.5 mph ESE5.6 kmh ESE 3.5 mph5.6 kmh 29.77 in1008.1 mb - 0.01 in0.3 mm 0.03 in0.8 mm
01:30 PM 37.6°F3.1°C 28.0°F-2.2°C 68% 2.3 mph ESE3.7 kmh ESE 3.5 mph5.6 kmh 29.75 in1007.5 mb - 0.00 in0.0 mm 0.03 in0.8 mm
01:45 PM 37.5°F3.1°C 28.6°F-1.9°C 70% 1.2 mph WSW1.9 kmh WSW 2.3 mph3.7 kmh 29.75 in1007.5 mb - 0.00 in0.0 mm 0.03 in0.8 mm
02:00 PM 38.1°F3.4°C 28.9°F-1.7°C 69% Calm Calm 1.2 mph1.9 kmh 29.75 in1007.5 mb - 0.00 in0.0 mm 0.03 in0.8 mm
02:15 PM 38.2°F3.4°C 27.9°F-2.3°C 66% 1.2 mph WSW1.9 kmh WSW 2.3 mph3.7 kmh 29.75 in1007.5 mb - 0.00 in0.0 mm 0.03 in0.8 mm
02:30 PM 38.0°F3.3°C 28.4°F-2.0°C 68% 1.2 mph WSW1.9 kmh WSW 1.2 mph1.9 kmh 29.75 in1007.5 mb - 0.00 in0.0 mm 0.03 in0.8 mm
02:45 PM 37.4°F3.0°C 28.5°F-1.9°C 70% Calm Calm 1.2 mph1.9 kmh 29.74 in1007.1 mb - 0.00 in0.0 mm 0.03 in0.8 mm
03:00 PM 36.5°F2.5°C 28.0°F-2.2°C 71% 2.3 mph NE3.7 kmh NE 3.5 mph5.6 kmh 29.74 in1007.1 mb - 0.00 in0.0 mm 0.03 in0.8 mm
03:15 PM 37.0°F2.8°C 28.8°F-1.8°C 72% Calm Calm 2.3 mph3.7 kmh 29.73 in1006.8 mb - 0.00 in0.0 mm 0.03 in0.8 mm
03:30 PM 38.0°F3.3°C 27.3°F-2.6°C 65% 1.2 mph NNW1.9 kmh NNW 3.5 mph5.6 kmh 29.73 in1006.8 mb - 0.00 in0.0 mm 0.03 in0.8 mm
03:45 PM 36.7°F2.6°C 27.5°F-2.5°C 69% Calm Calm -- 29.73 in1006.8 mb - 0.00 in0.0 mm 0.03 in0.8 mm
04:00 PM 35.9°F2.2°C 26.7°F-2.9°C 69% 2.3 mph NE3.7 kmh NE 3.5 mph5.6 kmh 29.75 in1007.5 mb - 0.00 in0.0 mm 0.03 in0.8 mm
04:15 PM 34.4°F1.3°C 25.6°F-3.6°C 70% 1.2 mph NE1.9 kmh NE 2.3 mph3.7 kmh 29.75 in1007.5 mb - 0.00 in0.0 mm 0.03 in0.8 mm
04:30 PM 34.1°F1.2°C 25.4°F-3.7°C 70% Calm Calm 2.3 mph3.7 kmh 29.75 in1007.5 mb - 0.00 in0.0 mm 0.03 in0.8 mm
04:45 PM 33.5°F0.8°C 25.7°F-3.5°C 73% Calm Calm -- 29.75 in1007.5 mb - 0.00 in0.0 mm 0.03 in0.8 mm
05:00 PM 31.7°F-0.2°C 25.6°F-3.6°C 78% 2.3 mph W3.7 kmh W 3.5 mph5.6 kmh 29.76 in1007.8 mb - 0.00 in0.0 mm 0.03 in0.8 mm
05:15 PM 32.2°F0.1°C 26.5°F-3.1°C 79% 1.2 mph W1.9 kmh W 2.3 mph3.7 kmh 29.76 in1007.8 mb - 0.00 in0.0 mm 0.03 in0.8 mm
05:30 PM 32.9°F0.5°C 26.4°F-3.1°C 77% 1.2 mph W1.9 kmh W 2.3 mph3.7 kmh 29.76 in1007.8 mb - 0.00 in0.0 mm 0.03 in0.8 mm
05:45 PM 32.5°F0.3°C 26.4°F-3.1°C 78% 3.5 mph ENE5.6 kmh ENE 3.5 mph5.6 kmh 29.76 in1007.8 mb - 0.00 in0.0 mm 0.03 in0.8 mm
06:00 PM 33.0°F0.6°C 26.3°F-3.2°C 76% 2.3 mph N3.7 kmh N 2.3 mph3.7 kmh 29.75 in1007.5 mb - 0.00 in0.0 mm 0.03 in0.8 mm
06:15 PM 32.1°F0.1°C 26.6°F-3.0°C 80% 5.8 mph WSW9.3 kmh WSW 5.8 mph9.3 kmh 29.78 in1008.5 mb - 0.00 in0.0 mm 0.03 in0.8 mm
06:30 PM 31.0°F-0.6°C 26.1°F-3.3°C 82% 3.5 mph NW5.6 kmh NW 3.5 mph5.6 kmh 29.79 in1008.8 mb - 0.00 in0.0 mm 0.03 in0.8 mm
06:45 PM 30.1°F-1.1°C 25.8°F-3.4°C 84% 1.2 mph NW1.9 kmh NW 2.3 mph3.7 kmh 29.79 in1008.8 mb - 0.00 in0.0 mm 0.03 in0.8 mm
07:00 PM 29.7°F-1.3°C 26.0°F-3.3°C 86% 1.2 mph NW1.9 kmh NW 2.3 mph3.7 kmh 29.79 in1008.8 mb - 0.00 in0.0 mm 0.03 in0.8 mm
07:15 PM 29.6°F-1.3°C 26.5°F-3.1°C 88% Calm Calm 2.3 mph3.7 kmh 29.81 in1009.5 mb - 0.00 in0.0 mm 0.03 in0.8 mm
07:30 PM 29.3°F-1.5°C 26.7°F-2.9°C 90% 2.3 mph WNW3.7 kmh WNW 3.5 mph5.6 kmh 29.81 in1009.5 mb - 0.00 in0.0 mm 0.03 in0.8 mm
07:45 PM 28.4°F-2.0°C 26.4°F-3.1°C 92% 5.8 mph WNW9.3 kmh WNW 6.9 mph11.1 kmh 29.82 in1009.8 mb - 0.00 in0.0 mm 0.03 in0.8 mm
08:00 PM 28.0°F-2.2°C 26.2°F-3.2°C 93% 4.6 mph WNW7.4 kmh WNW 6.9 mph11.1 kmh 29.81 in1009.5 mb - 0.00 in0.0 mm 0.03 in0.8 mm
08:15 PM 27.7°F-2.4°C 25.9°F-3.4°C 93% 4.6 mph WNW7.4 kmh WNW 8.1 mph13.0 kmh 29.80 in1009.1 mb - 0.00 in0.0 mm 0.03 in0.8 mm
08:30 PM 27.2°F-2.7°C 25.4°F-3.7°C 93% 4.6 mph WNW7.4 kmh WNW 4.6 mph7.4 kmh 29.82 in1009.8 mb - 0.00 in0.0 mm 0.03 in0.8 mm
08:45 PM 27.0°F-2.8°C 25.2°F-3.8°C 93% 3.5 mph WNW5.6 kmh WNW 3.5 mph5.6 kmh 29.82 in1009.8 mb - 0.00 in0.0 mm 0.03 in0.8 mm
09:00 PM 26.6°F-3.0°C 24.8°F-4.0°C 93% 5.8 mph WNW9.3 kmh WNW 5.8 mph9.3 kmh 29.83 in1010.2 mb - 0.00 in0.0 mm 0.03 in0.8 mm
09:15 PM 25.9°F-3.4°C 24.2°F-4.3°C 93% 4.6 mph WNW7.4 kmh WNW 4.6 mph7.4 kmh 29.83 in1010.2 mb - 0.00 in0.0 mm 0.03 in0.8 mm
09:30 PM 25.1°F-3.8°C 23.1°F-4.9°C 92% 4.6 mph WNW7.4 kmh WNW 9.2 mph14.8 kmh 29.83 in1010.2 mb - 0.00 in0.0 mm 0.03 in0.8 mm
09:45 PM 24.5°F-4.2°C 22.5°F-5.3°C 92% 4.6 mph WNW7.4 kmh WNW 5.8 mph9.3 kmh 29.84 in1010.5 mb - 0.00 in0.0 mm 0.03 in0.8 mm
10:00 PM 24.3°F-4.3°C 22.6°F-5.2°C 93% 5.8 mph WNW9.3 kmh WNW 9.2 mph14.8 kmh 29.86 in1011.2 mb - 0.00 in0.0 mm 0.03 in0.8 mm
10:15 PM 24.4°F-4.2°C 22.7°F-5.2°C 93% 4.6 mph WNW7.4 kmh WNW 5.8 mph9.3 kmh 29.85 in1010.8 mb - 0.00 in0.0 mm 0.03 in0.8 mm
10:30 PM 24.1°F-4.4°C 22.4°F-5.3°C 93% 4.6 mph WNW7.4 kmh WNW 5.8 mph9.3 kmh 29.86 in1011.2 mb - 0.00 in0.0 mm 0.03 in0.8 mm
10:45 PM 24.1°F-4.4°C 22.4°F-5.3°C 93% 3.5 mph NW5.6 kmh NW 4.6 mph7.4 kmh 29.87 in1011.5 mb - 0.00 in0.0 mm 0.03 in0.8 mm
11:00 PM 24.2°F-4.3°C 22.5°F-5.3°C 93% 5.8 mph WNW9.3 kmh WNW 6.9 mph11.1 kmh 29.88 in1011.9 mb - 0.00 in0.0 mm 0.03 in0.8 mm
11:15 PM 23.9°F-4.5°C 22.2°F-5.4°C 93% 3.5 mph NW5.6 kmh NW 4.6 mph7.4 kmh 29.89 in1012.2 mb - 0.00 in0.0 mm 0.03 in0.8 mm
11:30 PM 23.5°F-4.7°C 21.8°F-5.7°C 93% 3.5 mph NW5.6 kmh NW 3.5 mph5.6 kmh 29.89 in1012.2 mb - 0.00 in0.0 mm 0.03 in0.8 mm
11:45 PM 23.3°F-4.8°C 21.6°F-5.8°C 93% 3.5 mph NW5.6 kmh NW 3.5 mph5.6 kmh 29.90 in1012.5 mb - 0.00 in0.0 mm 0.03 in0.8 mm